sensor_id;sensor_type;location;lat;lon;timestamp;temperature;humidity
19342;DHT22;9807;48.258;12.690;2023-09-18T00:02:22;21.00;99.90
19342;DHT22;9807;48.258;12.690;2023-09-18T00:04:48;21.00;99.90
19342;DHT22;9807;48.258;12.690;2023-09-18T00:07:13;21.00;99.90
19342;DHT22;9807;48.258;12.690;2023-09-18T00:09:39;21.00;99.90
19342;DHT22;9807;48.258;12.690;2023-09-18T00:12:06;21.00;99.90
19342;DHT22;9807;48.258;12.690;2023-09-18T00:14:32;21.00;99.90
19342;DHT22;9807;48.258;12.690;2023-09-18T00:16:57;21.00;99.90
19342;DHT22;9807;48.258;12.690;2023-09-18T00:19:23;20.90;99.90
19342;DHT22;9807;48.258;12.690;2023-09-18T00:21:50;20.90;99.90
19342;DHT22;9807;48.258;12.690;2023-09-18T00:24:17;20.90;99.90
19342;DHT22;9807;48.258;12.690;2023-09-18T00:26:42;20.90;99.90
19342;DHT22;9807;48.258;12.690;2023-09-18T00:29:08;20.90;99.90
19342;DHT22;9807;48.258;12.690;2023-09-18T00:31:34;20.80;99.90
19342;DHT22;9807;48.258;12.690;2023-09-18T00:33:59;20.80;99.90
19342;DHT22;9807;48.258;12.690;2023-09-18T00:36:25;20.80;99.90
19342;DHT22;9807;48.258;12.690;2023-09-18T00:38:50;20.80;99.90
19342;DHT22;9807;48.258;12.690;2023-09-18T00:41:16;20.80;99.90
19342;DHT22;9807;48.258;12.690;2023-09-18T00:43:42;20.80;99.90
19342;DHT22;9807;48.258;12.690;2023-09-18T00:46:08;20.70;99.90
19342;DHT22;9807;48.258;12.690;2023-09-18T00:48:34;20.70;99.90
19342;DHT22;9807;48.258;12.690;2023-09-18T00:51:01;20.70;99.90
19342;DHT22;9807;48.258;12.690;2023-09-18T00:53:27;20.70;99.90
19342;DHT22;9807;48.258;12.690;2023-09-18T00:55:54;20.70;99.90
19342;DHT22;9807;48.258;12.690;2023-09-18T00:58:21;20.70;99.90
19342;DHT22;9807;48.258;12.690;2023-09-18T01:00:47;20.70;99.90
19342;DHT22;9807;48.258;12.690;2023-09-18T01:03:16;20.60;99.90
19342;DHT22;9807;48.258;12.690;2023-09-18T01:05:44;20.70;99.90
19342;DHT22;9807;48.258;12.690;2023-09-18T01:08:10;20.60;99.90
19342;DHT22;9807;48.258;12.690;2023-09-18T01:10:53;20.60;99.90
19342;DHT22;9807;48.258;12.690;2023-09-18T01:13:44;20.70;99.90
19342;DHT22;9807;48.258;12.690;2023-09-18T01:16:17;20.60;99.90
19342;DHT22;9807;48.258;12.690;2023-09-18T01:18:52;20.70;99.90
19342;DHT22;9807;48.258;12.690;2023-09-18T01:21:20;20.60;99.90
19342;DHT22;9807;48.258;12.690;2023-09-18T01:23:47;20.60;99.90
19342;DHT22;9807;48.258;12.690;2023-09-18T01:26:14;20.60;99.90
19342;DHT22;9807;48.258;12.690;2023-09-18T01:28:40;20.60;99.90
19342;DHT22;9807;48.258;12.690;2023-09-18T01:31:06;20.60;99.90
19342;DHT22;9807;48.258;12.690;2023-09-18T01:33:32;20.60;99.90
19342;DHT22;9807;48.258;12.690;2023-09-18T01:35:59;20.50;99.90
19342;DHT22;9807;48.258;12.690;2023-09-18T01:38:26;20.50;99.90
19342;DHT22;9807;48.258;12.690;2023-09-18T01:40:53;20.50;99.90
19342;DHT22;9807;48.258;12.690;2023-09-18T01:43:20;20.50;99.90
19342;DHT22;9807;48.258;12.690;2023-09-18T01:45:46;20.50;99.90
19342;DHT22;9807;48.258;12.690;2023-09-18T01:48:13;20.50;99.90
19342;DHT22;9807;48.258;12.690;2023-09-18T01:50:39;20.50;99.90
19342;DHT22;9807;48.258;12.690;2023-09-18T01:53:06;20.40;99.90
19342;DHT22;9807;48.258;12.690;2023-09-18T01:55:31;20.40;99.90
19342;DHT22;9807;48.258;12.690;2023-09-18T01:57:58;20.50;99.90
19342;DHT22;9807;48.258;12.690;2023-09-18T02:00:24;20.40;99.90
19342;DHT22;9807;48.258;12.690;2023-09-18T02:02:50;20.40;99.90
19342;DHT22;9807;48.258;12.690;2023-09-18T02:05:15;20.40;99.90
19342;DHT22;9807;48.258;12.690;2023-09-18T02:07:41;20.40;99.90
19342;DHT22;9807;48.258;12.690;2023-09-18T02:10:07;20.40;99.90
19342;DHT22;9807;48.258;12.690;2023-09-18T02:12:33;20.40;99.90
19342;DHT22;9807;48.258;12.690;2023-09-18T02:14:59;20.40;99.90
19342;DHT22;9807;48.258;12.690;2023-09-18T02:17:30;20.40;99.90
19342;DHT22;9807;48.258;12.690;2023-09-18T02:19:56;20.30;99.90
19342;DHT22;9807;48.258;12.690;2023-09-18T02:22:22;20.30;99.90
19342;DHT22;9807;48.258;12.690;2023-09-18T02:24:48;20.30;99.90
19342;DHT22;9807;48.258;12.690;2023-09-18T02:27:13;20.30;99.90
19342;DHT22;9807;48.258;12.690;2023-09-18T02:29:39;20.30;99.90
19342;DHT22;9807;48.258;12.690;2023-09-18T02:32:05;20.30;99.90
19342;DHT22;9807;48.258;12.690;2023-09-18T02:34:31;20.30;99.90
19342;DHT22;9807;48.258;12.690;2023-09-18T02:36:56;20.30;99.90
19342;DHT22;9807;48.258;12.690;2023-09-18T02:39:22;20.20;99.90
19342;DHT22;9807;48.258;12.690;2023-09-18T02:41:48;20.30;99.90
19342;DHT22;9807;48.258;12.690;2023-09-18T02:44:13;20.20;99.90
19342;DHT22;9807;48.258;12.690;2023-09-18T02:46:41;20.20;99.90
19342;DHT22;9807;48.258;12.690;2023-09-18T02:49:07;20.20;99.90
19342;DHT22;9807;48.258;12.690;2023-09-18T02:51:33;20.20;99.90
19342;DHT22;9807;48.258;12.690;2023-09-18T02:53:59;20.20;99.90
19342;DHT22;9807;48.258;12.690;2023-09-18T02:56:24;20.20;99.90
19342;DHT22;9807;48.258;12.690;2023-09-18T02:58:50;20.20;99.90
19342;DHT22;9807;48.258;12.690;2023-09-18T03:01:15;20.20;99.90
19342;DHT22;9807;48.258;12.690;2023-09-18T03:03:42;20.10;99.90
19342;DHT22;9807;48.258;12.690;2023-09-18T03:06:08;20.10;99.90
19342;DHT22;9807;48.258;12.690;2023-09-18T03:08:35;20.10;99.90
19342;DHT22;9807;48.258;12.690;2023-09-18T03:11:00;20.10;99.90
19342;DHT22;9807;48.258;12.690;2023-09-18T03:13:27;20.10;99.90
19342;DHT22;9807;48.258;12.690;2023-09-18T03:15:53;20.10;99.90
19342;DHT22;9807;48.258;12.690;2023-09-18T03:18:19;20.10;99.90
19342;DHT22;9807;48.258;12.690;2023-09-18T03:20:44;20.00;99.90
19342;DHT22;9807;48.258;12.690;2023-09-18T03:23:10;20.00;99.90
19342;DHT22;9807;48.258;12.690;2023-09-18T03:25:37;20.00;99.90
19342;DHT22;9807;48.258;12.690;2023-09-18T03:28:03;20.00;99.90
19342;DHT22;9807;48.258;12.690;2023-09-18T03:30:29;19.90;99.90
19342;DHT22;9807;48.258;12.690;2023-09-18T03:32:55;19.70;99.90
19342;DHT22;9807;48.258;12.690;2023-09-18T03:35:21;19.60;99.90
19342;DHT22;9807;48.258;12.690;2023-09-18T03:37:48;19.50;99.90
19342;DHT22;9807;48.258;12.690;2023-09-18T03:40:14;19.50;99.90
19342;DHT22;9807;48.258;12.690;2023-09-18T03:42:40;19.60;99.90
19342;DHT22;9807;48.258;12.690;2023-09-18T03:45:07;19.80;99.90
19342;DHT22;9807;48.258;12.690;2023-09-18T03:47:38;19.80;99.90
19342;DHT22;9807;48.258;12.690;2023-09-18T03:50:06;19.80;99.90
19342;DHT22;9807;48.258;12.690;2023-09-18T03:52:31;19.90;99.90
19342;DHT22;9807;48.258;12.690;2023-09-18T03:54:57;19.90;99.90
19342;DHT22;9807;48.258;12.690;2023-09-18T03:57:24;19.90;99.90
19342;DHT22;9807;48.258;12.690;2023-09-18T03:59:50;19.90;99.90
19342;DHT22;9807;48.258;12.690;2023-09-18T04:02:16;19.90;99.90
19342;DHT22;9807;48.258;12.690;2023-09-18T04:04:41;19.90;99.90
19342;DHT22;9807;48.258;12.690;2023-09-18T04:07:08;19.90;99.90
19342;DHT22;9807;48.258;12.690;2023-09-18T04:09:34;19.90;99.90
19342;DHT22;9807;48.258;12.690;2023-09-18T04:12:01;19.90;99.90
19342;DHT22;9807;48.258;12.690;2023-09-18T04:14:26;19.90;99.90
19342;DHT22;9807;48.258;12.690;2023-09-18T04:16:52;19.90;99.90
19342;DHT22;9807;48.258;12.690;2023-09-18T04:19:18;19.90;99.90
19342;DHT22;9807;48.258;12.690;2023-09-18T04:21:44;19.80;99.90
19342;DHT22;9807;48.258;12.690;2023-09-18T04:24:09;19.80;99.90
19342;DHT22;9807;48.258;12.690;2023-09-18T04:26:35;19.80;99.90
19342;DHT22;9807;48.258;12.690;2023-09-18T04:29:01;19.80;99.90
19342;DHT22;9807;48.258;12.690;2023-09-18T04:31:27;19.80;99.90
19342;DHT22;9807;48.258;12.690;2023-09-18T04:33:54;19.80;99.90
19342;DHT22;9807;48.258;12.690;2023-09-18T04:36:20;19.70;99.90
19342;DHT22;9807;48.258;12.690;2023-09-18T04:38:45;19.80;99.90
19342;DHT22;9807;48.258;12.690;2023-09-18T04:41:12;19.80;99.90
19342;DHT22;9807;48.258;12.690;2023-09-18T04:43:38;19.80;99.90
19342;DHT22;9807;48.258;12.690;2023-09-18T04:46:04;19.70;99.90
19342;DHT22;9807;48.258;12.690;2023-09-18T04:48:33;19.70;99.90
19342;DHT22;9807;48.258;12.690;2023-09-18T04:51:00;19.80;99.90
19342;DHT22;9807;48.258;12.690;2023-09-18T04:53:27;19.80;99.90
19342;DHT22;9807;48.258;12.690;2023-09-18T04:55:53;19.70;99.90
19342;DHT22;9807;48.258;12.690;2023-09-18T04:58:18;19.70;99.90
19342;DHT22;9807;48.258;12.690;2023-09-18T05:00:44;19.70;99.90
19342;DHT22;9807;48.258;12.690;2023-09-18T05:03:12;19.70;99.90
19342;DHT22;9807;48.258;12.690;2023-09-18T05:05:38;19.60;99.90
19342;DHT22;9807;48.258;12.690;2023-09-18T05:08:06;19.70;99.90
19342;DHT22;9807;48.258;12.690;2023-09-18T05:10:35;19.70;99.90
19342;DHT22;9807;48.258;12.690;2023-09-18T05:13:02;19.70;99.90
19342;DHT22;9807;48.258;12.690;2023-09-18T05:15:29;19.70;99.90
19342;DHT22;9807;48.258;12.690;2023-09-18T05:17:56;19.70;99.90
19342;DHT22;9807;48.258;12.690;2023-09-18T05:20:28;19.70;99.90
19342;DHT22;9807;48.258;12.690;2023-09-18T05:22:56;19.70;99.90
19342;DHT22;9807;48.258;12.690;2023-09-18T05:25:23;19.70;99.90
19342;DHT22;9807;48.258;12.690;2023-09-18T05:27:51;19.60;99.90
19342;DHT22;9807;48.258;12.690;2023-09-18T05:30:27;19.70;99.90
19342;DHT22;9807;48.258;12.690;2023-09-18T05:33:01;19.60;99.90
19342;DHT22;9807;48.258;12.690;2023-09-18T05:35:31;19.70;99.90
19342;DHT22;9807;48.258;12.690;2023-09-18T05:37:57;19.60;99.90
19342;DHT22;9807;48.258;12.690;2023-09-18T05:40:24;19.70;99.90
19342;DHT22;9807;48.258;12.690;2023-09-18T05:42:54;19.70;99.90
19342;DHT22;9807;48.258;12.690;2023-09-18T05:45:20;19.40;99.90
19342;DHT22;9807;48.258;12.690;2023-09-18T05:47:46;19.30;99.90
19342;DHT22;9807;48.258;12.690;2023-09-18T05:50:14;19.20;99.90
19342;DHT22;9807;48.258;12.690;2023-09-18T05:52:42;19.30;99.90
19342;DHT22;9807;48.258;12.690;2023-09-18T05:55:09;19.50;99.90
19342;DHT22;9807;48.258;12.690;2023-09-18T05:57:36;19.60;99.90
19342;DHT22;9807;48.258;12.690;2023-09-18T06:00:02;19.70;99.90
19342;DHT22;9807;48.258;12.690;2023-09-18T06:02:30;19.80;99.90
19342;DHT22;9807;48.258;12.690;2023-09-18T06:04:57;19.90;99.90
19342;DHT22;9807;48.258;12.690;2023-09-18T06:07:24;19.90;99.90
19342;DHT22;9807;48.258;12.690;2023-09-18T06:09:51;20.00;99.90
19342;DHT22;9807;48.258;12.690;2023-09-18T06:12:16;20.10;99.90
19342;DHT22;9807;48.258;12.690;2023-09-18T06:14:42;20.10;99.90
19342;DHT22;9807;48.258;12.690;2023-09-18T06:17:09;20.20;99.90
19342;DHT22;9807;48.258;12.690;2023-09-18T06:19:35;20.30;99.90
19342;DHT22;9807;48.258;12.690;2023-09-18T06:22:01;20.30;99.90
19342;DHT22;9807;48.258;12.690;2023-09-18T06:24:26;20.10;99.90
19342;DHT22;9807;48.258;12.690;2023-09-18T06:26:52;20.00;99.90
19342;DHT22;9807;48.258;12.690;2023-09-18T06:29:18;20.10;99.90
19342;DHT22;9807;48.258;12.690;2023-09-18T06:31:44;20.20;99.90
19342;DHT22;9807;48.258;12.690;2023-09-18T06:34:10;20.30;99.90
19342;DHT22;9807;48.258;12.690;2023-09-18T06:36:35;20.50;99.90
19342;DHT22;9807;48.258;12.690;2023-09-18T06:39:01;20.60;99.90
19342;DHT22;9807;48.258;12.690;2023-09-18T06:41:27;20.70;99.90
19342;DHT22;9807;48.258;12.690;2023-09-18T06:43:53;20.90;99.90
19342;DHT22;9807;48.258;12.690;2023-09-18T06:46:19;20.90;99.90
19342;DHT22;9807;48.258;12.690;2023-09-18T06:48:44;21.10;99.90
19342;DHT22;9807;48.258;12.690;2023-09-18T06:51:15;21.30;99.90
19342;DHT22;9807;48.258;12.690;2023-09-18T06:53:41;21.30;99.90
19342;DHT22;9807;48.258;12.690;2023-09-18T06:56:07;21.40;99.90
19342;DHT22;9807;48.258;12.690;2023-09-18T06:58:34;21.60;99.90
19342;DHT22;9807;48.258;12.690;2023-09-18T07:01:00;21.70;99.90
19342;DHT22;9807;48.258;12.690;2023-09-18T07:03:26;21.70;99.90
19342;DHT22;9807;48.258;12.690;2023-09-18T07:05:51;21.80;99.90
19342;DHT22;9807;48.258;12.690;2023-09-18T07:08:17;22.00;99.90
19342;DHT22;9807;48.258;12.690;2023-09-18T07:10:49;22.10;99.90
19342;DHT22;9807;48.258;12.690;2023-09-18T07:13:16;22.30;99.90
19342;DHT22;9807;48.258;12.690;2023-09-18T07:15:42;22.30;99.90
19342;DHT22;9807;48.258;12.690;2023-09-18T07:18:09;22.50;99.90
19342;DHT22;9807;48.258;12.690;2023-09-18T07:20:43;22.60;99.90
19342;DHT22;9807;48.258;12.690;2023-09-18T07:23:09;22.70;99.90
19342;DHT22;9807;48.258;12.690;2023-09-18T07:25:35;22.80;99.90
19342;DHT22;9807;48.258;12.690;2023-09-18T07:28:05;22.40;99.90
19342;DHT22;9807;48.258;12.690;2023-09-18T07:30:31;22.40;99.90
19342;DHT22;9807;48.258;12.690;2023-09-18T07:32:57;22.30;99.90
19342;DHT22;9807;48.258;12.690;2023-09-18T07:35:23;22.60;99.90
19342;DHT22;9807;48.258;12.690;2023-09-18T07:37:49;22.70;99.90
19342;DHT22;9807;48.258;12.690;2023-09-18T07:40:15;22.90;99.90
19342;DHT22;9807;48.258;12.690;2023-09-18T07:42:41;23.00;99.90
19342;DHT22;9807;48.258;12.690;2023-09-18T07:45:12;23.10;99.90
19342;DHT22;9807;48.258;12.690;2023-09-18T07:47:38;23.10;99.90
19342;DHT22;9807;48.258;12.690;2023-09-18T07:50:04;23.20;99.90
19342;DHT22;9807;48.258;12.690;2023-09-18T07:52:30;23.10;99.90
19342;DHT22;9807;48.258;12.690;2023-09-18T07:54:57;23.00;99.90
19342;DHT22;9807;48.258;12.690;2023-09-18T07:57:23;22.70;99.90
19342;DHT22;9807;48.258;12.690;2023-09-18T07:59:50;22.60;99.90
19342;DHT22;9807;48.258;12.690;2023-09-18T08:02:16;22.90;99.90
19342;DHT22;9807;48.258;12.690;2023-09-18T08:04:42;23.20;99.90
19342;DHT22;9807;48.258;12.690;2023-09-18T08:07:08;23.40;99.90
19342;DHT22;9807;48.258;12.690;2023-09-18T08:09:34;23.50;99.90
19342;DHT22;9807;48.258;12.690;2023-09-18T08:12:02;23.20;99.90
19342;DHT22;9807;48.258;12.690;2023-09-18T08:14:29;23.20;99.90
19342;DHT22;9807;48.258;12.690;2023-09-18T08:16:57;23.40;99.90
19342;DHT22;9807;48.258;12.690;2023-09-18T08:19:22;23.60;99.90
19342;DHT22;9807;48.258;12.690;2023-09-18T08:21:49;23.80;99.90
19342;DHT22;9807;48.258;12.690;2023-09-18T08:24:14;24.00;99.90
19342;DHT22;9807;48.258;12.690;2023-09-18T08:26:40;23.80;99.90
19342;DHT22;9807;48.258;12.690;2023-09-18T08:29:06;23.90;99.90
19342;DHT22;9807;48.258;12.690;2023-09-18T08:31:32;23.80;99.90
19342;DHT22;9807;48.258;12.690;2023-09-18T08:33:57;23.70;99.90
19342;DHT22;9807;48.258;12.690;2023-09-18T08:36:23;23.90;99.90
19342;DHT22;9807;48.258;12.690;2023-09-18T08:38:49;24.10;99.90
19342;DHT22;9807;48.258;12.690;2023-09-18T08:41:18;24.00;99.90
19342;DHT22;9807;48.258;12.690;2023-09-18T08:43:48;23.70;99.90
19342;DHT22;9807;48.258;12.690;2023-09-18T08:46:16;23.70;99.90
19342;DHT22;9807;48.258;12.690;2023-09-18T08:48:45;23.50;99.90
19342;DHT22;9807;48.258;12.690;2023-09-18T08:51:12;23.60;99.90
19342;DHT22;9807;48.258;12.690;2023-09-18T08:53:39;23.30;99.90
19342;DHT22;9807;48.258;12.690;2023-09-18T08:56:06;23.20;99.90
19342;DHT22;9807;48.258;12.690;2023-09-18T08:58:37;23.20;99.90
19342;DHT22;9807;48.258;12.690;2023-09-18T09:01:06;23.30;99.90
19342;DHT22;9807;48.258;12.690;2023-09-18T09:03:39;23.40;99.90
19342;DHT22;9807;48.258;12.690;2023-09-18T09:06:09;23.40;99.90
19342;DHT22;9807;48.258;12.690;2023-09-18T09:08:36;23.40;99.90
19342;DHT22;9807;48.258;12.690;2023-09-18T09:11:02;23.30;99.90
19342;DHT22;9807;48.258;12.690;2023-09-18T09:13:29;23.20;99.90
19342;DHT22;9807;48.258;12.690;2023-09-18T09:15:58;22.80;99.90
19342;DHT22;9807;48.258;12.690;2023-09-18T09:18:25;22.70;99.90
19342;DHT22;9807;48.258;12.690;2023-09-18T09:20:59;22.80;99.90
19342;DHT22;9807;48.258;12.690;2023-09-18T09:23:30;23.00;99.90
19342;DHT22;9807;48.258;12.690;2023-09-18T09:26:17;23.10;99.90
19342;DHT22;9807;48.258;12.690;2023-09-18T09:28:44;23.00;99.90
19342;DHT22;9807;48.258;12.690;2023-09-18T09:31:10;23.00;99.90
19342;DHT22;9807;48.258;12.690;2023-09-18T09:33:37;23.20;99.90
19342;DHT22;9807;48.258;12.690;2023-09-18T09:36:07;23.30;99.90
19342;DHT22;9807;48.258;12.690;2023-09-18T09:38:34;23.20;99.90
19342;DHT22;9807;48.258;12.690;2023-09-18T09:41:00;23.30;99.90
19342;DHT22;9807;48.258;12.690;2023-09-18T09:43:31;23.50;99.90
19342;DHT22;9807;48.258;12.690;2023-09-18T09:45:59;23.70;99.90
19342;DHT22;9807;48.258;12.690;2023-09-18T09:48:25;23.90;99.90
19342;DHT22;9807;48.258;12.690;2023-09-18T09:50:57;23.90;99.90
19342;DHT22;9807;48.258;12.690;2023-09-18T09:53:46;23.90;99.90
19342;DHT22;9807;48.258;12.690;2023-09-18T09:56:14;23.80;99.90
19342;DHT22;9807;48.258;12.690;2023-09-18T09:58:40;23.70;99.90
19342;DHT22;9807;48.258;12.690;2023-09-18T10:01:12;23.70;99.90
19342;DHT22;9807;48.258;12.690;2023-09-18T10:03:44;23.70;99.90
19342;DHT22;9807;48.258;12.690;2023-09-18T10:06:11;23.80;99.90
19342;DHT22;9807;48.258;12.690;2023-09-18T10:08:41;23.70;99.90
19342;DHT22;9807;48.258;12.690;2023-09-18T10:11:09;23.90;99.90
19342;DHT22;9807;48.258;12.690;2023-09-18T10:13:47;24.00;99.90
19342;DHT22;9807;48.258;12.690;2023-09-18T10:16:17;23.90;99.90
19342;DHT22;9807;48.258;12.690;2023-09-18T10:24:20;24.20;99.90
19342;DHT22;9807;48.258;12.690;2023-09-18T10:27:00;24.40;99.90
19342;DHT22;9807;48.258;12.690;2023-09-18T10:29:31;24.50;99.90
19342;DHT22;9807;48.258;12.690;2023-09-18T10:31:58;24.50;99.90
19342;DHT22;9807;48.258;12.690;2023-09-18T10:34:24;24.50;99.90
19342;DHT22;9807;48.258;12.690;2023-09-18T10:36:52;24.50;99.90
19342;DHT22;9807;48.258;12.690;2023-09-18T10:39:18;24.60;99.90
19342;DHT22;9807;48.258;12.690;2023-09-18T10:41:48;24.60;99.90
19342;DHT22;9807;48.258;12.690;2023-09-18T10:44:15;24.40;99.90
19342;DHT22;9807;48.258;12.690;2023-09-18T10:46:42;24.60;99.90
19342;DHT22;9807;48.258;12.690;2023-09-18T10:49:08;24.80;99.90
19342;DHT22;9807;48.258;12.690;2023-09-18T10:51:34;25.00;99.90
19342;DHT22;9807;48.258;12.690;2023-09-18T10:54:00;25.10;99.90
19342;DHT22;9807;48.258;12.690;2023-09-18T10:56:26;25.10;99.90
19342;DHT22;9807;48.258;12.690;2023-09-18T10:59:02;25.00;99.90
19342;DHT22;9807;48.258;12.690;2023-09-18T11:01:31;24.90;99.90
19342;DHT22;9807;48.258;12.690;2023-09-18T11:04:05;24.90;99.90
19342;DHT22;9807;48.258;12.690;2023-09-18T11:09:30;24.60;99.90
19342;DHT22;9807;48.258;12.690;2023-09-18T11:12:03;24.40;99.90
19342;DHT22;9807;48.258;12.690;2023-09-18T11:14:58;24.30;99.90
19342;DHT22;9807;48.258;12.690;2023-09-18T11:17:40;24.20;99.90
19342;DHT22;9807;48.258;12.690;2023-09-18T11:20:21;24.20;99.90
19342;DHT22;9807;48.258;12.690;2023-09-18T11:22:59;24.20;99.90
19342;DHT22;9807;48.258;12.690;2023-09-18T11:25:38;24.20;99.90
19342;DHT22;9807;48.258;12.690;2023-09-18T11:28:15;24.50;99.90
19342;DHT22;9807;48.258;12.690;2023-09-18T11:30:52;24.60;99.90
19342;DHT22;9807;48.258;12.690;2023-09-18T11:36:06;24.60;99.90
19342;DHT22;9807;48.258;12.690;2023-09-18T11:38:50;24.50;99.90
19342;DHT22;9807;48.258;12.690;2023-09-18T11:41:27;24.60;99.90
19342;DHT22;9807;48.258;12.690;2023-09-18T11:46:49;24.70;99.90
19342;DHT22;9807;48.258;12.690;2023-09-18T11:49:22;24.90;99.90
19342;DHT22;9807;48.258;12.690;2023-09-18T11:51:50;25.00;99.90
19342;DHT22;9807;48.258;12.690;2023-09-18T11:54:16;25.00;99.90
19342;DHT22;9807;48.258;12.690;2023-09-18T11:56:43;24.90;99.90
19342;DHT22;9807;48.258;12.690;2023-09-18T11:59:09;24.80;99.90
19342;DHT22;9807;48.258;12.690;2023-09-18T12:01:36;24.90;99.90
19342;DHT22;9807;48.258;12.690;2023-09-18T12:04:05;25.00;99.90
19342;DHT22;9807;48.258;12.690;2023-09-18T12:06:38;25.00;99.90
19342;DHT22;9807;48.258;12.690;2023-09-18T12:09:06;24.90;99.90
19342;DHT22;9807;48.258;12.690;2023-09-18T12:11:33;25.00;99.90
19342;DHT22;9807;48.258;12.690;2023-09-18T12:14:04;25.10;99.90
19342;DHT22;9807;48.258;12.690;2023-09-18T12:16:31;24.90;99.90
19342;DHT22;9807;48.258;12.690;2023-09-18T12:19:03;24.90;99.90
19342;DHT22;9807;48.258;12.690;2023-09-18T12:21:31;24.90;99.90
19342;DHT22;9807;48.258;12.690;2023-09-18T12:23:57;25.00;99.90
19342;DHT22;9807;48.258;12.690;2023-09-18T12:26:23;25.00;99.90
19342;DHT22;9807;48.258;12.690;2023-09-18T12:28:51;24.80;99.90
19342;DHT22;9807;48.258;12.690;2023-09-18T12:31:17;24.60;99.90
19342;DHT22;9807;48.258;12.690;2023-09-18T12:33:43;24.50;99.90
19342;DHT22;9807;48.258;12.690;2023-09-18T12:36:10;24.40;99.90
19342;DHT22;9807;48.258;12.690;2023-09-18T12:38:37;24.40;99.90
19342;DHT22;9807;48.258;12.690;2023-09-18T12:41:04;24.30;99.90
19342;DHT22;9807;48.258;12.690;2023-09-18T12:43:50;24.20;99.90
19342;DHT22;9807;48.258;12.690;2023-09-18T12:46:17;24.20;99.90
19342;DHT22;9807;48.258;12.690;2023-09-18T12:48:45;24.20;99.90
19342;DHT22;9807;48.258;12.690;2023-09-18T12:51:12;24.10;99.90
19342;DHT22;9807;48.258;12.690;2023-09-18T12:53:40;24.10;99.90
19342;DHT22;9807;48.258;12.690;2023-09-18T12:56:13;24.00;99.90
19342;DHT22;9807;48.258;12.690;2023-09-18T12:58:42;24.00;99.90
19342;DHT22;9807;48.258;12.690;2023-09-18T13:01:11;23.90;99.90
19342;DHT22;9807;48.258;12.690;2023-09-18T13:03:44;23.90;99.90
19342;DHT22;9807;48.258;12.690;2023-09-18T13:06:17;23.90;99.90
19342;DHT22;9807;48.258;12.690;2023-09-18T13:08:43;23.90;99.90
19342;DHT22;9807;48.258;12.690;2023-09-18T13:11:09;23.90;99.90
19342;DHT22;9807;48.258;12.690;2023-09-18T13:13:37;23.90;99.90
19342;DHT22;9807;48.258;12.690;2023-09-18T13:16:06;23.90;99.90
19342;DHT22;9807;48.258;12.690;2023-09-18T13:18:34;23.90;99.90
19342;DHT22;9807;48.258;12.690;2023-09-18T13:21:00;23.90;99.90
19342;DHT22;9807;48.258;12.690;2023-09-18T13:23:31;23.90;99.90
19342;DHT22;9807;48.258;12.690;2023-09-18T13:26:05;23.70;99.90
19342;DHT22;9807;48.258;12.690;2023-09-18T13:28:32;23.50;99.90
19342;DHT22;9807;48.258;12.690;2023-09-18T13:31:00;23.40;99.90
19342;DHT22;9807;48.258;12.690;2023-09-18T13:33:27;23.40;99.90
19342;DHT22;9807;48.258;12.690;2023-09-18T13:35:53;23.30;99.90
19342;DHT22;9807;48.258;12.690;2023-09-18T13:38:19;23.20;99.90
19342;DHT22;9807;48.258;12.690;2023-09-18T13:40:47;23.10;99.90
19342;DHT22;9807;48.258;12.690;2023-09-18T13:43:14;23.00;99.90
19342;DHT22;9807;48.258;12.690;2023-09-18T13:45:41;22.90;99.90
19342;DHT22;9807;48.258;12.690;2023-09-18T13:48:08;22.70;99.90
19342;DHT22;9807;48.258;12.690;2023-09-18T13:50:35;22.50;99.90
19342;DHT22;9807;48.258;12.690;2023-09-18T13:53:01;22.30;99.90
19342;DHT22;9807;48.258;12.690;2023-09-18T13:55:30;22.20;99.90
19342;DHT22;9807;48.258;12.690;2023-09-18T13:57:56;22.00;99.90
19342;DHT22;9807;48.258;12.690;2023-09-18T14:00:22;21.90;99.90
19342;DHT22;9807;48.258;12.690;2023-09-18T14:02:48;21.90;99.90
19342;DHT22;9807;48.258;12.690;2023-09-18T14:05:14;21.80;99.90
19342;DHT22;9807;48.258;12.690;2023-09-18T14:07:40;21.70;99.90
19342;DHT22;9807;48.258;12.690;2023-09-18T14:10:07;21.70;99.90
19342;DHT22;9807;48.258;12.690;2023-09-18T14:12:36;21.60;99.90
19342;DHT22;9807;48.258;12.690;2023-09-18T14:15:02;21.50;99.90
19342;DHT22;9807;48.258;12.690;2023-09-18T14:17:29;21.40;99.90
19342;DHT22;9807;48.258;12.690;2023-09-18T14:19:56;21.30;99.90
19342;DHT22;9807;48.258;12.690;2023-09-18T14:22:22;21.20;99.90
19342;DHT22;9807;48.258;12.690;2023-09-18T14:24:47;21.10;99.90
19342;DHT22;9807;48.258;12.690;2023-09-18T14:27:13;20.90;99.90
19342;DHT22;9807;48.258;12.690;2023-09-18T14:29:39;20.80;99.90
19342;DHT22;9807;48.258;12.690;2023-09-18T14:32:05;20.70;99.90
19342;DHT22;9807;48.258;12.690;2023-09-18T14:34:33;20.60;99.90
19342;DHT22;9807;48.258;12.690;2023-09-18T14:37:01;20.60;99.90
19342;DHT22;9807;48.258;12.690;2023-09-18T14:39:33;20.60;99.90
19342;DHT22;9807;48.258;12.690;2023-09-18T14:41:58;20.50;99.90
19342;DHT22;9807;48.258;12.690;2023-09-18T14:44:27;20.50;99.90
19342;DHT22;9807;48.258;12.690;2023-09-18T14:46:53;20.40;99.90
19342;DHT22;9807;48.258;12.690;2023-09-18T14:49:19;20.20;99.90
19342;DHT22;9807;48.258;12.690;2023-09-18T14:51:45;20.10;99.90
19342;DHT22;9807;48.258;12.690;2023-09-18T14:54:11;20.10;99.90
19342;DHT22;9807;48.258;12.690;2023-09-18T14:56:37;20.00;99.90
19342;DHT22;9807;48.258;12.690;2023-09-18T14:59:03;20.00;99.90
19342;DHT22;9807;48.258;12.690;2023-09-18T15:01:30;19.80;99.90
19342;DHT22;9807;48.258;12.690;2023-09-18T15:03:56;19.70;99.90
19342;DHT22;9807;48.258;12.690;2023-09-18T15:06:21;19.60;99.90
19342;DHT22;9807;48.258;12.690;2023-09-18T15:08:47;19.50;99.90
19342;DHT22;9807;48.258;12.690;2023-09-18T15:11:13;19.30;99.90
19342;DHT22;9807;48.258;12.690;2023-09-18T15:13:43;19.10;99.90
19342;DHT22;9807;48.258;12.690;2023-09-18T15:16:08;19.00;99.90
19342;DHT22;9807;48.258;12.690;2023-09-18T15:18:34;18.90;99.90
19342;DHT22;9807;48.258;12.690;2023-09-18T15:21:01;18.70;99.90
19342;DHT22;9807;48.258;12.690;2023-09-18T15:23:27;18.60;99.90
19342;DHT22;9807;48.258;12.690;2023-09-18T15:25:56;18.50;99.90
19342;DHT22;9807;48.258;12.690;2023-09-18T15:28:26;18.40;99.90
19342;DHT22;9807;48.258;12.690;2023-09-18T15:30:54;18.20;99.90
19342;DHT22;9807;48.258;12.690;2023-09-18T15:33:21;18.00;99.90
19342;DHT22;9807;48.258;12.690;2023-09-18T15:35:52;17.90;99.90
19342;DHT22;9807;48.258;12.690;2023-09-18T15:38:18;17.70;99.90
19342;DHT22;9807;48.258;12.690;2023-09-18T15:40:44;17.80;99.90
19342;DHT22;9807;48.258;12.690;2023-09-18T15:43:10;17.90;99.90
19342;DHT22;9807;48.258;12.690;2023-09-18T15:45:36;18.00;99.90
19342;DHT22;9807;48.258;12.690;2023-09-18T15:48:03;18.10;99.90